createdAt,value
2017-09-25T00:01:08.492Z,14.45
2017-09-25T00:02:20.685Z,14.4
2017-09-25T00:03:32.881Z,14.44
2017-09-25T00:04:45.069Z,14.44
2017-09-25T00:05:57.566Z,14.49
2017-09-25T00:07:09.793Z,14.43
2017-09-25T00:08:21.665Z,14.45
2017-09-25T00:09:33.538Z,14.53
2017-09-25T00:10:46.029Z,14.53
2017-09-25T00:11:58.205Z,14.49
2017-09-25T00:13:10.374Z,14.52
2017-09-25T00:14:22.884Z,14.53
2017-09-25T00:15:34.762Z,14.49
2017-09-25T00:16:47.250Z,14.45
2017-09-25T00:17:59.446Z,14.52
2017-09-25T00:19:11.930Z,14.53
2017-09-25T00:20:24.112Z,14.56
2017-09-25T00:21:36.618Z,14.56
2017-09-25T00:22:49.167Z,14.55
2017-09-25T00:24:01.651Z,14.51
2017-09-25T00:25:13.849Z,14.51
2017-09-25T00:26:26.048Z,14.56
2017-09-25T00:27:38.536Z,14.56
2017-09-25T00:28:51.031Z,14.51
2017-09-25T00:30:03.535Z,14.56
2017-09-25T00:31:16.023Z,14.53
2017-09-25T00:32:28.219Z,14.53
2017-09-25T00:33:40.718Z,14.53
2017-09-25T00:34:52.910Z,14.56
2017-09-25T00:36:05.414Z,14.56
2017-09-25T00:37:17.908Z,14.53
2017-09-25T00:38:30.407Z,14.56
2017-09-25T00:39:42.881Z,14.44
2017-09-25T00:40:55.363Z,14.55
2017-09-25T00:42:07.541Z,14.51
2017-09-25T00:43:19.418Z,14.43
2017-09-25T00:44:31.618Z,14.48
2017-09-25T00:45:43.808Z,14.45
2017-09-25T00:46:55.980Z,14.45
2017-09-25T00:48:08.175Z,14.43
2017-09-25T00:49:20.666Z,14.43
2017-09-25T00:50:33.160Z,14.44
2017-09-25T00:51:45.038Z,14.41
2017-09-25T00:52:57.545Z,14.41
2017-09-25T00:54:10.048Z,14.25
2017-09-25T00:55:21.924Z,14.25
2017-09-25T00:56:34.094Z,14.22
2017-09-25T00:57:46.627Z,14.3
2017-09-25T00:58:58.512Z,14.11
2017-09-25T01:00:10.993Z,14.15
2017-09-25T01:01:23.497Z,14.22
2017-09-25T01:02:35.694Z,14.15
2017-09-25T01:03:48.180Z,14.15
2017-09-25T01:05:00.359Z,14.11
2017-09-25T01:06:12.847Z,14.07
2017-09-25T01:07:25.075Z,14.04
2017-09-25T01:08:37.289Z,14.04
2017-09-25T01:09:49.172Z,13.97
2017-09-25T01:11:01.355Z,13.98
2017-09-25T01:12:13.875Z,13.85
2017-09-25T01:13:26.354Z,13.86
2017-09-25T01:14:38.229Z,13.89
2017-09-25T01:15:50.719Z,13.91
2017-09-25T01:17:02.609Z,13.82
2017-09-25T01:18:15.111Z,13.8
2017-09-25T01:19:27.587Z,13.78
2017-09-25T01:20:40.078Z,13.7
2017-09-25T01:21:52.272Z,13.71
2017-09-25T01:23:04.461Z,13.65
2017-09-25T01:24:16.645Z,13.64
2017-09-25T01:25:28.827Z,13.67
2017-09-25T01:26:41.031Z,13.61
2017-09-25T01:27:53.505Z,13.58
2017-09-25T01:29:05.697Z,13.61
2017-09-25T01:30:17.571Z,13.49
2017-09-25T01:31:29.756Z,13.47
2017-09-25T01:32:42.508Z,13.45
2017-09-25T01:33:54.997Z,13.42
2017-09-25T01:35:07.500Z,13.37
2017-09-25T01:36:19.689Z,13.39
2017-09-25T01:37:31.872Z,13.39
2017-09-25T01:38:43.754Z,13.28
2017-09-25T01:39:55.934Z,13.26
2017-09-25T01:41:08.420Z,13.26
2017-09-25T01:42:20.603Z,13.27
2017-09-25T01:43:33.073Z,13.23
2017-09-25T01:44:45.257Z,13.21
2017-09-25T01:45:57.415Z,13.27
2017-09-25T01:47:09.610Z,13.26
2017-09-25T01:48:22.103Z,13.21
2017-09-25T01:49:34.300Z,13.23
2017-09-25T01:50:46.794Z,13.27
2017-09-25T01:51:59.282Z,13.27
2017-09-25T01:53:11.777Z,13.27
2017-09-25T01:54:23.961Z,13.37
2017-09-25T01:55:36.151Z,13.28
2017-09-25T01:56:48.339Z,13.31
2017-09-25T01:58:00.534Z,13.31
2017-09-25T01:59:12.706Z,13.31
2017-09-25T02:00:25.209Z,13.3
2017-09-25T02:01:37.682Z,13.39
2017-09-25T02:02:49.268Z,13.39
2017-09-25T02:04:01.787Z,13.4
2017-09-25T02:05:13.368Z,13.33
2017-09-25T02:06:25.854Z,13.5
2017-09-25T02:07:38.050Z,13.37
2017-09-25T02:08:50.571Z,13.46
2017-09-25T02:10:02.467Z,13.42
2017-09-25T02:11:14.969Z,13.42
2017-09-25T02:12:27.466Z,13.5
2017-09-25T02:13:39.962Z,13.52
2017-09-25T02:14:52.457Z,13.55
2017-09-25T02:16:04.944Z,13.5
2017-09-25T02:17:16.828Z,13.58
2017-09-25T02:18:28.704Z,13.61
2017-09-25T02:19:40.889Z,13.54
2017-09-25T02:20:53.076Z,13.55
2017-09-25T02:22:05.261Z,13.58
2017-09-25T02:23:17.430Z,13.6
2017-09-25T02:24:29.922Z,13.55
2017-09-25T02:25:42.397Z,13.65
2017-09-25T02:26:54.581Z,13.62
2017-09-25T02:28:06.775Z,13.67
2017-09-25T02:29:19.272Z,13.7
2017-09-25T02:30:31.767Z,13.62
2017-09-25T02:31:44.265Z,13.62
2017-09-25T02:32:56.458Z,13.65
2017-09-25T02:34:08.663Z,13.71
2017-09-25T02:35:20.834Z,13.68
2017-09-25T02:36:33.021Z,13.64
2017-09-25T02:37:45.766Z,13.78
2017-09-25T02:38:58.270Z,13.73
2017-09-25T02:40:10.766Z,13.75
2017-09-25T02:41:23.286Z,13.78
2017-09-25T02:42:35.799Z,13.83
2017-09-25T02:43:48.302Z,13.79
2017-09-25T02:45:00.798Z,13.73
2017-09-25T02:46:13.294Z,13.8
2017-09-25T02:47:25.482Z,13.79
2017-09-25T02:48:37.734Z,13.8
2017-09-25T02:49:50.210Z,13.79
2017-09-25T02:51:02.728Z,13.82
2017-09-25T02:52:15.216Z,13.79
2017-09-25T02:53:27.760Z,13.82
2017-09-25T02:54:40.255Z,13.8
2017-09-25T02:55:52.750Z,13.75
2017-09-25T02:57:05.280Z,13.83
2017-09-25T02:58:17.467Z,13.82
2017-09-25T02:59:30.213Z,13.83
2017-09-25T03:00:42.697Z,13.86
2017-09-25T03:01:54.879Z,13.87
2017-09-25T03:03:07.375Z,13.79
2017-09-25T03:04:19.559Z,13.78
2017-09-25T03:05:32.074Z,13.86
2017-09-25T03:06:44.562Z,13.89
2017-09-25T03:07:56.744Z,13.89
2017-09-25T03:09:08.928Z,13.86
2017-09-25T03:10:21.412Z,13.82
2017-09-25T03:11:33.620Z,13.93
2017-09-25T03:12:46.122Z,13.87
2017-09-25T03:13:58.332Z,13.82
2017-09-25T03:15:10.532Z,13.83
2017-09-25T03:16:23.026Z,13.89
2017-09-25T03:17:34.898Z,13.87
2017-09-25T03:18:47.135Z,13.87
2017-09-25T03:19:59.628Z,13.89
2017-09-25T03:21:11.743Z,13.91
2017-09-25T03:22:23.930Z,13.82
2017-09-25T03:23:35.826Z,13.86
2017-09-25T03:24:48.329Z,13.87
2017-09-25T03:26:00.818Z,13.91
2017-09-25T03:27:13.000Z,13.93
2017-09-25T03:28:25.184Z,14.01
2017-09-25T03:29:37.668Z,13.83
2017-09-25T03:30:50.160Z,13.86
2017-09-25T03:32:02.728Z,13.89
2017-09-25T03:33:14.916Z,13.93
2017-09-25T03:34:27.112Z,13.89
2017-09-25T03:35:39.615Z,13.89
2017-09-25T03:36:51.811Z,13.87
2017-09-25T03:38:04.310Z,13.86
2017-09-25T03:39:16.803Z,13.87
2017-09-25T03:40:28.977Z,13.89
2017-09-25T03:41:41.467Z,13.87
2017-09-25T03:42:53.652Z,13.89
2017-09-25T03:44:05.839Z,13.85
2017-09-25T03:45:18.028Z,13.83
2017-09-25T03:46:30.532Z,13.86
2017-09-25T03:47:43.014Z,13.91
2017-09-25T03:48:55.518Z,13.87
2017-09-25T03:50:07.694Z,13.87
2017-09-25T03:51:20.178Z,13.94
2017-09-25T03:52:32.381Z,13.94
2017-09-25T03:53:44.805Z,13.86
2017-09-25T03:54:56.688Z,13.91
2017-09-25T03:56:08.884Z,13.86
2017-09-25T03:57:21.086Z,13.86
2017-09-25T03:58:33.600Z,13.93
2017-09-25T03:59:45.782Z,13.8
2017-09-25T04:00:57.953Z,13.94
2017-09-25T04:02:10.445Z,13.87
2017-09-25T04:03:22.633Z,13.87
2017-09-25T04:04:34.828Z,13.93
2017-09-25T04:05:46.706Z,13.85
2017-09-25T04:06:59.202Z,13.86
2017-09-25T04:08:11.698Z,13.86
2017-09-25T04:09:24.189Z,13.93
2017-09-25T04:10:36.690Z,13.87
2017-09-25T04:11:49.185Z,13.87
2017-09-25T04:13:00.756Z,13.91
2017-09-25T04:14:12.935Z,13.89
2017-09-25T04:15:25.414Z,13.89
2017-09-25T04:16:37.896Z,13.87
2017-09-25T04:17:49.764Z,13.87
2017-09-25T04:19:01.638Z,13.91
2017-09-25T04:20:13.530Z,13.86
2017-09-25T04:21:25.751Z,13.87
2017-09-25T04:22:37.949Z,13.93
2017-09-25T04:23:50.442Z,13.91
2017-09-25T04:25:02.638Z,13.87
2017-09-25T04:26:14.475Z,13.83
2017-09-25T04:27:26.663Z,13.89
2017-09-25T04:28:38.566Z,13.85
2017-09-25T04:29:51.062Z,13.87
2017-09-25T04:31:03.558Z,13.87
2017-09-25T04:32:16.042Z,13.89
2017-09-25T04:33:28.250Z,13.86
2017-09-25T04:34:40.744Z,13.91
2017-09-25T04:35:52.927Z,13.89
2017-09-25T04:37:05.411Z,13.83
2017-09-25T04:38:17.594Z,13.83
2017-09-25T04:39:29.765Z,13.94
2017-09-25T04:40:42.261Z,13.82
2017-09-25T04:41:54.750Z,13.83
2017-09-25T04:43:07.246Z,13.87
2017-09-25T04:44:19.443Z,13.87
2017-09-25T04:45:31.617Z,13.89
2017-09-25T04:46:44.109Z,13.93
2017-09-25T04:47:56.606Z,13.86
2017-09-25T04:49:08.792Z,13.86
2017-09-25T04:50:20.988Z,13.8
2017-09-25T04:51:32.567Z,13.83
2017-09-25T04:52:45.062Z,13.85
2017-09-25T04:53:57.558Z,13.8
2017-09-25T04:55:10.045Z,13.7
2017-09-25T04:56:22.544Z,13.76
2017-09-25T04:57:34.745Z,13.67
2017-09-25T04:58:47.241Z,13.65
2017-09-25T04:59:59.428Z,13.68
2017-09-25T05:01:11.907Z,13.65
2017-09-25T05:02:24.401Z,13.68
2017-09-25T05:03:36.598Z,13.64
2017-09-25T05:04:48.794Z,13.7
2017-09-25T05:06:01.282Z,13.62
2017-09-25T05:07:13.778Z,13.61
2017-09-25T05:08:26.302Z,13.67
2017-09-25T05:09:38.801Z,13.67
2017-09-25T05:10:50.690Z,13.68
2017-09-25T05:12:02.885Z,13.65
2017-09-25T05:13:15.106Z,13.62
2017-09-25T05:14:26.985Z,13.58
2017-09-25T05:15:39.179Z,13.58
2017-09-25T05:16:51.367Z,13.57
2017-09-25T05:18:03.904Z,13.58
2017-09-25T05:19:16.092Z,13.54
2017-09-25T05:20:28.279Z,13.58
2017-09-25T05:21:40.783Z,13.57
2017-09-25T05:22:52.956Z,13.54
2017-09-25T05:24:05.449Z,13.58
2017-09-25T05:25:17.937Z,13.57
2017-09-25T05:26:30.418Z,13.57
2017-09-25T05:27:42.911Z,13.52
2017-09-25T05:28:55.099Z,13.57
2017-09-25T05:30:06.982Z,13.54
2017-09-25T05:31:19.454Z,13.54
2017-09-25T05:32:31.936Z,13.55
2017-09-25T05:33:44.114Z,13.5
2017-09-25T05:34:56.302Z,13.55
2017-09-25T05:36:08.504Z,13.6
2017-09-25T05:37:20.081Z,13.55
2017-09-25T05:38:32.571Z,13.65
2017-09-25T05:39:45.059Z,13.65
2017-09-25T05:40:57.556Z,13.58
2017-09-25T05:42:09.689Z,13.67
2017-09-25T05:43:22.185Z,13.73
2017-09-25T05:44:34.701Z,13.68
2017-09-25T05:45:47.187Z,13.64
2017-09-25T05:46:59.092Z,13.64
2017-09-25T05:48:11.586Z,13.64
2017-09-25T05:49:24.083Z,13.64
2017-09-25T05:50:36.578Z,13.67
2017-09-25T05:51:49.066Z,13.67
2017-09-25T05:53:01.573Z,13.76
2017-09-25T05:54:14.066Z,13.73
2017-09-25T05:55:25.953Z,13.68
2017-09-25T05:56:38.481Z,13.76
2017-09-25T05:57:50.651Z,13.73
2017-09-25T05:59:02.840Z,13.67
2017-09-25T06:00:15.343Z,13.78
2017-09-25T06:01:27.855Z,13.64
2017-09-25T06:02:40.039Z,13.68
2017-09-25T06:03:52.530Z,13.79
2017-09-25T06:05:04.727Z,13.73
2017-09-25T06:06:16.928Z,13.79
2017-09-25T06:07:28.798Z,13.83
2017-09-25T06:08:40.962Z,13.79
2017-09-25T06:09:53.476Z,13.79
2017-09-25T06:11:05.957Z,13.82
2017-09-25T06:12:18.449Z,13.78
2017-09-25T06:13:30.938Z,13.78
2017-09-25T06:14:43.133Z,13.79
2017-09-25T06:15:55.629Z,13.83
2017-09-25T06:17:08.125Z,13.79
2017-09-25T06:18:20.327Z,13.91
2017-09-25T06:19:32.853Z,13.8
2017-09-25T06:20:45.061Z,13.83
2017-09-25T06:21:57.557Z,13.85
2017-09-25T06:23:09.436Z,13.94
2017-09-25T06:24:21.623Z,13.91
2017-09-25T06:25:33.445Z,13.89
2017-09-25T06:26:45.640Z,13.85
2017-09-25T06:27:57.845Z,13.95
2017-09-25T06:29:10.042Z,13.94
2017-09-25T06:30:21.952Z,13.98
2017-09-25T06:31:34.147Z,13.95
2017-09-25T06:32:46.355Z,13.94
2017-09-25T06:33:58.846Z,13.97
2017-09-25T06:35:11.343Z,14.03
2017-09-25T06:36:23.238Z,13.97
2017-09-25T06:37:35.425Z,13.93
2017-09-25T06:38:47.624Z,13.98
2017-09-25T06:40:00.124Z,14.01
2017-09-25T06:41:12.312Z,14.07
2017-09-25T06:42:24.195Z,14.01
2017-09-25T06:43:36.679Z,14.08
2017-09-25T06:44:49.183Z,14.13
2017-09-25T06:46:01.052Z,14.19
2017-09-25T06:47:13.541Z,14.22
2017-09-25T06:48:25.744Z,14.16
2017-09-25T06:49:38.218Z,14.23
2017-09-25T06:50:50.703Z,14.36
2017-09-25T06:52:02.907Z,14.22
2017-09-25T06:53:15.402Z,14.33
2017-09-25T06:54:27.889Z,14.33
2017-09-25T06:55:40.385Z,14.36
2017-09-25T06:56:52.569Z,14.33
2017-09-25T06:58:05.059Z,14.44
2017-09-25T06:59:16.948Z,14.34
2017-09-25T07:00:29.451Z,14.38
2017-09-25T07:01:41.626Z,14.36
2017-09-25T07:02:54.124Z,14.37
2017-09-25T07:04:06.613Z,14.41
2017-09-25T07:05:19.100Z,14.38
2017-09-25T07:06:31.297Z,14.4
2017-09-25T07:07:43.800Z,14.49
2017-09-25T07:08:56.299Z,14.4
2017-09-25T07:10:08.791Z,14.49
2017-09-25T07:11:20.987Z,14.43
2017-09-25T07:12:33.182Z,14.49
2017-09-25T07:13:45.378Z,14.48
2017-09-25T07:14:57.873Z,14.56
2017-09-25T07:16:10.069Z,14.49
2017-09-25T07:17:21.957Z,14.45
2017-09-25T07:18:34.452Z,14.53
2017-09-25T07:19:46.884Z,14.55
2017-09-25T07:20:58.777Z,14.55
2017-09-25T07:22:10.964Z,14.52
2017-09-25T07:23:22.862Z,14.56
2017-09-25T07:24:34.767Z,14.52
2017-09-25T07:25:47.254Z,14.55
2017-09-25T07:26:59.747Z,14.52
2017-09-25T07:28:12.242Z,14.66
2017-09-25T07:29:24.750Z,14.62
2017-09-25T07:30:37.267Z,14.67
2017-09-25T07:31:49.762Z,14.66
2017-09-25T07:33:01.950Z,14.59
2017-09-25T07:34:14.154Z,14.68
2017-09-25T07:35:26.349Z,14.67
2017-09-25T07:36:38.837Z,14.62
2017-09-25T07:37:51.043Z,14.63
2017-09-25T07:39:03.528Z,14.77
2017-09-25T07:40:15.723Z,14.73
2017-09-25T07:41:28.219Z,14.7
2017-09-25T07:42:40.415Z,14.62
2017-09-25T07:43:52.911Z,14.63
2017-09-25T07:45:05.107Z,14.63
2017-09-25T07:46:17.603Z,14.66
2017-09-25T07:47:29.787Z,14.61
2017-09-25T07:48:41.701Z,14.61
2017-09-25T07:49:53.897Z,14.67
2017-09-25T07:51:05.793Z,14.49
2017-09-25T07:52:17.968Z,14.51
2017-09-25T07:53:30.151Z,14.52
2017-09-25T07:54:42.335Z,14.52
2017-09-25T07:55:54.530Z,14.49
2017-09-25T07:57:07.022Z,14.53
2017-09-25T07:58:19.534Z,14.48
2017-09-25T07:59:31.737Z,14.59
2017-09-25T08:00:44.224Z,14.53
2017-09-25T08:01:56.729Z,14.51
2017-09-25T08:03:08.865Z,14.58
2017-09-25T08:04:21.373Z,14.55
2017-09-25T08:05:33.566Z,14.51
2017-09-25T08:06:45.186Z,14.52
2017-09-25T08:07:57.381Z,14.66
2017-09-25T08:09:09.879Z,14.61
2017-09-25T08:10:22.365Z,14.66
2017-09-25T08:11:34.868Z,14.59
2017-09-25T08:12:47.063Z,14.73
2017-09-25T08:13:58.940Z,14.73
2017-09-25T08:15:11.423Z,14.74
2017-09-25T08:16:23.306Z,14.78
2017-09-25T08:17:35.813Z,14.85
2017-09-25T08:18:48.010Z,14.9
2017-09-25T08:20:00.191Z,14.99
2017-09-25T08:21:12.376Z,14.96
2017-09-25T08:22:24.878Z,14.97
2017-09-25T08:23:37.051Z,15.02
2017-09-25T08:24:49.237Z,15.08
2017-09-25T08:26:01.733Z,15.08
2017-09-25T08:27:13.913Z,15.22
2017-09-25T08:28:25.789Z,15.29
2017-09-25T08:29:38.278Z,15.19
2017-09-25T08:30:50.765Z,15.37
2017-09-25T08:32:02.671Z,15.32
2017-09-25T08:33:14.233Z,15.33
2017-09-25T08:34:26.438Z,15.36
2017-09-25T08:35:38.331Z,15.41
2017-09-25T08:36:50.828Z,15.32
2017-09-25T08:38:03.316Z,15.32
2017-09-25T08:39:15.861Z,15.44
2017-09-25T08:40:27.756Z,15.37
2017-09-25T08:41:39.340Z,15.44
2017-09-25T08:42:51.831Z,15.36
2017-09-25T08:44:04.318Z,15.37
2017-09-25T08:45:16.222Z,15.26
2017-09-25T08:46:28.409Z,15.32
2017-09-25T08:47:40.289Z,15.29
2017-09-25T08:48:52.519Z,15.08
2017-09-25T08:50:04.409Z,15.07
2017-09-25T08:51:16.300Z,15.12
2017-09-25T08:52:28.196Z,15.07
2017-09-25T08:53:40.384Z,15.07
2017-09-25T08:54:52.887Z,15.14
2017-09-25T08:56:05.062Z,15.04
2017-09-25T08:57:17.253Z,15.12
2017-09-25T08:58:29.141Z,15.1
2017-09-25T08:59:41.337Z,15.05
2017-09-25T09:00:53.532Z,15.04
2017-09-25T09:02:06.036Z,15.05
2017-09-25T09:03:17.923Z,15.04
2017-09-25T09:04:30.426Z,15.05
2017-09-25T09:05:42.622Z,15.04
2017-09-25T09:06:55.119Z,14.99
2017-09-25T09:08:07.011Z,15.1
2017-09-25T09:09:19.191Z,15
2017-09-25T09:10:31.379Z,15.02
2017-09-25T09:11:43.876Z,14.94
2017-09-25T09:12:56.064Z,14.97
2017-09-25T09:14:08.559Z,14.97
2017-09-25T09:15:20.763Z,15
2017-09-25T09:16:32.951Z,14.93
2017-09-25T09:17:45.446Z,14.96
2017-09-25T09:18:57.880Z,14.93
2017-09-25T09:20:10.063Z,15.04
2017-09-25T09:21:22.567Z,14.96
2017-09-25T09:22:34.743Z,14.9
2017-09-25T09:23:46.632Z,14.93
2017-09-25T09:24:58.506Z,14.93
2017-09-25T09:26:10.405Z,14.85
2017-09-25T09:27:22.574Z,14.86
2017-09-25T09:28:35.057Z,14.87
2017-09-25T09:29:47.261Z,14.81
2017-09-25T09:30:59.757Z,14.89
2017-09-25T09:32:12.253Z,14.87
2017-09-25T09:33:24.775Z,14.85
2017-09-25T09:34:37.269Z,14.77
2017-09-25T09:35:49.465Z,14.74
2017-09-25T09:37:01.660Z,14.89
2017-09-25T09:38:14.156Z,14.74
2017-09-25T09:39:26.656Z,14.86
2017-09-25T09:40:39.148Z,14.85
2017-09-25T09:41:51.643Z,14.86
2017-09-25T09:43:03.518Z,14.9
2017-09-25T09:44:15.401Z,14.89
2017-09-25T09:45:27.904Z,14.9
2017-09-25T09:46:40.400Z,14.89
2017-09-25T09:47:52.596Z,14.86
2017-09-25T09:49:04.784Z,14.94
2017-09-25T09:50:16.980Z,14.9
2017-09-25T09:51:29.163Z,15
2017-09-25T09:52:41.053Z,14.99
2017-09-25T09:53:53.549Z,14.97
2017-09-25T09:55:05.420Z,15.04
2017-09-25T09:56:17.608Z,14.96
2017-09-25T09:57:30.112Z,14.96
2017-09-25T09:58:42.598Z,15.04
2017-09-25T09:59:55.094Z,15.05
2017-09-25T10:01:07.291Z,15.11
2017-09-25T10:02:19.486Z,15.07
2017-09-25T10:03:31.688Z,15.04
2017-09-25T10:04:44.189Z,15.11
2017-09-25T10:05:56.681Z,15.08
2017-09-25T10:07:08.879Z,15.12
2017-09-25T10:08:20.466Z,15
2017-09-25T10:09:32.349Z,15.04
2017-09-25T10:10:44.839Z,15.04
2017-09-25T10:11:57.334Z,15.04
2017-09-25T10:13:09.530Z,15.02
2017-09-25T10:14:21.727Z,15.14
2017-09-25T10:15:33.606Z,15.04
2017-09-25T10:16:46.091Z,14.9
2017-09-25T10:17:58.588Z,14.9
2017-09-25T10:19:10.787Z,14.92
2017-09-25T10:20:23.297Z,14.87
2017-09-25T10:21:34.874Z,14.89
2017-09-25T10:22:47.070Z,14.82
2017-09-25T10:23:59.566Z,14.73
2017-09-25T10:25:11.761Z,14.82
2017-09-25T10:26:23.958Z,14.73
2017-09-25T10:27:36.153Z,14.63
2017-09-25T10:28:48.654Z,14.63
2017-09-25T10:30:00.836Z,14.66
2017-09-25T10:31:13.341Z,14.61
2017-09-25T10:32:25.528Z,14.67
2017-09-25T10:33:38.010Z,14.71
2017-09-25T10:34:50.202Z,14.56
2017-09-25T10:36:02.703Z,14.52
2017-09-25T10:37:14.572Z,14.58
2017-09-25T10:38:26.444Z,14.61
2017-09-25T10:39:38.627Z,14.55
2017-09-25T10:40:51.123Z,14.63
2017-09-25T10:42:03.319Z,14.49
2017-09-25T10:43:15.822Z,14.49
2017-09-25T10:44:28.310Z,14.61
2017-09-25T10:45:40.805Z,14.56
2017-09-25T10:46:53.313Z,14.59
2017-09-25T10:48:05.804Z,14.59
2017-09-25T10:49:18.299Z,14.67
2017-09-25T10:50:30.796Z,14.58
2017-09-25T10:51:43.292Z,14.58
2017-09-25T10:52:55.467Z,14.56
2017-09-25T10:54:07.950Z,14.66
2017-09-25T10:55:19.857Z,14.61
2017-09-25T10:56:32.048Z,14.68
2017-09-25T10:57:43.945Z,14.71
2017-09-25T10:58:56.139Z,14.87
2017-09-25T11:00:08.337Z,14.96
2017-09-25T11:01:19.607Z,14.94
2017-09-25T11:02:32.120Z,15.02
2017-09-25T11:03:43.999Z,15
2017-09-25T11:04:55.894Z,15.11
2017-09-25T11:06:07.482Z,15.08
2017-09-25T11:07:19.378Z,15.07
2017-09-25T11:08:31.573Z,15.23
2017-09-25T11:09:44.077Z,15.19
2017-09-25T11:10:56.273Z,15.14
2017-09-25T11:12:08.147Z,15.19
2017-09-25T11:13:20.018Z,15.15
2017-09-25T11:14:32.202Z,15.18
2017-09-25T11:15:44.085Z,15.14
2017-09-25T11:16:56.268Z,15.12
2017-09-25T11:18:07.847Z,15.04
2017-09-25T11:19:20.042Z,15
2017-09-25T11:20:31.955Z,15.05
2017-09-25T11:21:44.160Z,14.97
2017-09-25T11:22:56.671Z,14.92
2017-09-25T11:24:08.867Z,14.92
2017-09-25T11:25:21.080Z,14.93
2017-09-25T11:26:33.567Z,14.99
2017-09-25T11:27:46.054Z,14.94
2017-09-25T11:28:58.250Z,15.02
2017-09-25T11:30:10.779Z,14.97
2017-09-25T11:31:22.674Z,14.97
2017-09-25T11:32:35.187Z,14.93
2017-09-25T11:33:47.368Z,15.05
2017-09-25T11:34:59.556Z,15.05
2017-09-25T11:36:12.056Z,15.23
2017-09-25T11:37:24.244Z,15.32
2017-09-25T11:38:36.448Z,15.36
2017-09-25T11:39:49.193Z,15.52
2017-09-25T11:41:01.085Z,15.63
2017-09-25T11:42:13.589Z,15.67
2017-09-25T11:43:26.072Z,15.83
2017-09-25T11:44:38.577Z,15.78
2017-09-25T11:45:50.763Z,15.83
2017-09-25T11:47:02.960Z,15.85
2017-09-25T11:48:15.144Z,16.05
2017-09-25T11:49:26.726Z,16.03
2017-09-25T11:50:38.974Z,16.09
2017-09-25T11:51:51.474Z,16.08
2017-09-25T11:53:03.963Z,16.25
2017-09-25T11:54:16.458Z,16.25
2017-09-25T11:55:28.655Z,16.25
2017-09-25T11:56:41.158Z,16.29
2017-09-25T11:57:53.653Z,16.26
2017-09-25T11:59:06.169Z,16.37
2017-09-25T12:00:18.672Z,16.37
2017-09-25T12:01:30.908Z,16.32
2017-09-25T12:02:43.411Z,16.36
2017-09-25T12:03:55.598Z,16.39
2017-09-25T12:05:07.794Z,16.39
2017-09-25T12:06:19.698Z,16.54
2017-09-25T12:07:31.586Z,16.44
2017-09-25T12:08:43.789Z,16.46
2017-09-25T12:09:55.677Z,16.57
2017-09-25T12:11:08.179Z,16.61
2017-09-25T12:12:20.068Z,16.57
2017-09-25T12:13:32.250Z,16.59
2017-09-25T12:14:44.443Z,16.55
2017-09-25T12:15:56.630Z,16.66
2017-09-25T12:17:08.826Z,16.72
2017-09-25T12:18:21.022Z,16.65
2017-09-25T12:19:33.224Z,16.74
2017-09-25T12:20:45.712Z,16.79
2017-09-25T12:21:57.617Z,16.79
2017-09-25T12:23:09.791Z,16.69
2017-09-25T12:24:21.709Z,16.69
2017-09-25T12:25:34.196Z,16.59
2017-09-25T12:26:46.091Z,16.64
2017-09-25T12:27:58.593Z,16.61
2017-09-25T12:29:11.114Z,16.51
2017-09-25T12:30:23.312Z,16.58
2017-09-25T12:31:35.524Z,16.51
2017-09-25T12:32:47.407Z,16.44
2017-09-25T12:33:59.590Z,16.31
2017-09-25T12:35:11.175Z,16.25
2017-09-25T12:36:23.357Z,16.31
2017-09-25T12:37:35.852Z,16.22
2017-09-25T12:38:48.048Z,16.21
2017-09-25T12:40:00.552Z,16.16
2017-09-25T12:41:12.752Z,15.96
2017-09-25T12:42:24.636Z,16.06
2017-09-25T12:43:36.832Z,15.96
2017-09-25T12:44:49.334Z,15.94
2017-09-25T12:46:01.830Z,15.92
2017-09-25T12:47:14.028Z,15.96
2017-09-25T12:48:26.215Z,15.84
2017-09-25T12:49:38.447Z,15.87
2017-09-25T12:50:50.954Z,15.88
2017-09-25T12:52:03.150Z,15.76
2017-09-25T12:53:14.753Z,15.76
2017-09-25T12:54:26.625Z,15.73
2017-09-25T12:55:38.800Z,15.91
2017-09-25T12:56:51.269Z,15.8
2017-09-25T12:58:03.760Z,15.96
2017-09-25T12:59:15.331Z,15.92
2017-09-25T13:00:27.208Z,15.98
2017-09-25T13:01:39.716Z,16
2017-09-25T13:02:51.925Z,16.12
2017-09-25T13:04:04.415Z,16.06
2017-09-25T13:05:16.286Z,16.18
2017-09-25T13:06:28.462Z,16.05
2017-09-25T13:07:40.645Z,15.96
2017-09-25T13:08:53.147Z,16
2017-09-25T13:10:05.647Z,15.99
2017-09-25T13:11:17.838Z,15.8
2017-09-25T13:12:30.334Z,15.75
2017-09-25T13:13:42.208Z,15.69
2017-09-25T13:14:54.717Z,15.72
2017-09-25T13:16:06.913Z,15.66
2017-09-25T13:17:19.118Z,15.6
2017-09-25T13:18:31.637Z,15.6
2017-09-25T13:19:43.524Z,15.54
2017-09-25T13:20:55.420Z,15.48
2017-09-25T13:22:07.605Z,15.39
2017-09-25T13:23:19.487Z,15.39
2017-09-25T13:24:31.691Z,15.26
2017-09-25T13:25:43.886Z,15.19
2017-09-25T13:26:56.381Z,15.32
2017-09-25T13:28:08.581Z,15.22
2017-09-25T13:29:20.454Z,15.17
2017-09-25T13:30:32.945Z,15.19
2017-09-25T13:31:45.440Z,15.23
2017-09-25T13:32:57.635Z,15.08
2017-09-25T13:34:10.130Z,15.07
2017-09-25T13:35:22.002Z,15.05
2017-09-25T13:36:34.476Z,15.11
2017-09-25T13:37:46.360Z,15.04
2017-09-25T13:38:58.562Z,14.99
2017-09-25T13:40:11.051Z,15.04
2017-09-25T13:41:23.246Z,15
2017-09-25T13:42:35.143Z,14.99
2017-09-25T13:43:47.651Z,14.99
2017-09-25T13:44:59.842Z,14.92
2017-09-25T13:46:11.430Z,14.96
2017-09-25T13:47:23.939Z,14.9
2017-09-25T13:48:36.429Z,14.92
2017-09-25T13:49:48.941Z,14.94
2017-09-25T13:51:01.142Z,14.9
2017-09-25T13:52:13.641Z,14.96
2017-09-25T13:53:25.841Z,14.96
2017-09-25T13:54:38.332Z,14.96
2017-09-25T13:55:50.520Z,15.02
2017-09-25T13:57:03.015Z,15.04
2017-09-25T13:58:15.499Z,15.1
2017-09-25T14:03:25.201Z,15.11
2017-09-25T14:04:37.695Z,15.17
2017-09-25T14:05:49.287Z,15.12
2017-09-25T14:07:01.779Z,15.26
2017-09-25T14:08:14.283Z,15.27
2017-09-25T14:09:25.870Z,15.26
2017-09-25T14:10:38.382Z,15.27
2017-09-25T14:11:50.869Z,15.29
2017-09-25T14:13:03.369Z,15.37
2017-09-25T14:14:15.554Z,15.33
2017-09-25T14:15:27.154Z,15.35
2017-09-25T14:16:39.652Z,15.29
2017-09-25T14:17:51.839Z,15.45
2017-09-25T14:19:04.035Z,15.37
2017-09-25T14:20:16.243Z,15.41
2017-09-25T14:21:28.738Z,15.39
2017-09-25T14:22:40.930Z,15.39
2017-09-25T14:23:52.519Z,15.44
2017-09-25T14:25:04.714Z,15.47
2017-09-25T14:26:16.910Z,15.47
2017-09-25T14:27:29.105Z,15.54
2017-09-25T14:28:41.301Z,15.54
2017-09-25T14:29:53.496Z,15.54
2017-09-25T14:31:05.386Z,15.52
2017-09-25T14:32:17.288Z,15.48
2017-09-25T14:33:29.794Z,15.48
2017-09-25T14:34:42.278Z,15.54
2017-09-25T14:35:54.783Z,15.54
2017-09-25T14:37:06.979Z,15.52
2017-09-25T14:38:18.854Z,15.48
2017-09-25T14:39:31.345Z,15.54
2017-09-25T14:40:43.539Z,15.57
2017-09-25T14:41:55.431Z,15.63
2017-09-25T14:43:07.931Z,15.47
2017-09-25T14:44:20.428Z,15.47
2017-09-25T14:45:32.924Z,15.62
2017-09-25T14:46:45.110Z,15.6
2017-09-25T14:47:57.332Z,15.6
2017-09-25T14:49:09.827Z,15.62
2017-09-25T14:50:22.024Z,15.62
2017-09-25T14:51:33.902Z,15.69
2017-09-25T14:52:46.397Z,15.73
2017-09-25T14:53:58.892Z,15.75
2017-09-25T14:55:10.487Z,15.73
2017-09-25T14:56:22.982Z,15.75
2017-09-25T14:57:34.860Z,15.81
2017-09-25T14:58:47.341Z,15.87
2017-09-25T14:59:59.546Z,15.81
2017-09-25T15:01:12.040Z,15.85
2017-09-25T15:02:24.539Z,15.85
2017-09-25T15:03:37.025Z,15.94
2017-09-25T15:04:49.527Z,15.83
2017-09-25T15:06:01.724Z,15.91
2017-09-25T15:07:14.212Z,15.83
2017-09-25T15:08:26.112Z,15.91
2017-09-25T15:09:37.987Z,15.91
2017-09-25T15:10:50.482Z,15.85
2017-09-25T15:12:02.677Z,15.9
2017-09-25T15:13:14.872Z,15.73
2017-09-25T15:14:26.159Z,15.85
2017-09-25T15:15:38.353Z,15.87
2017-09-25T15:16:50.539Z,15.83
2017-09-25T15:18:03.023Z,15.75
2017-09-25T15:19:15.518Z,15.66
2017-09-25T15:20:27.399Z,15.62
2017-09-25T15:21:39.592Z,15.63
2017-09-25T15:22:51.787Z,15.52
2017-09-25T15:24:04.275Z,15.59
2017-09-25T15:25:15.834Z,15.48
2017-09-25T15:26:28.325Z,15.5
2017-09-25T15:27:40.513Z,15.47
2017-09-25T15:28:52.083Z,15.44
2017-09-25T15:30:03.963Z,15.39
2017-09-25T15:31:16.149Z,15.36
2017-09-25T15:32:28.633Z,15.36
2017-09-25T15:33:40.840Z,15.19
2017-09-25T15:34:52.740Z,15.19
2017-09-25T15:36:05.233Z,15.12
2017-09-25T15:37:17.116Z,15.07
2017-09-25T15:38:29.605Z,15.07